PWSweather.com
Personal Weather Stations
Station Observations
SWHWX01
St AppolinardFR 38160

St AppolinardFR 38160

Lat: 45.191, Lon: 5.268

Elevation: 1460

Station Type: Davis Vantage Pro2 Plus

www.sweetwebhome.com/?show=wxindex

High Low Average
Temperature 48.9°F9.4°C 40.5°F4.7°C 44.3°F6.8°C
Dew Point 44.3°F6.8°C 38.4°F3.6°C 41.1°F5.1°C
Winds 5.0 mph 8.0 kmh Calm Calm 1.0 mph SW1.6 kmh SW
Wind Gusts 7.0 mph11.3 kmh -- 2.0 mph3.2 kmh
Humidity 93% 81% 88%
Pressure 30.14 in1020.7 mb 30.07 in1018.3 mb -
Precipitation 0.00 in0.0 mm - -
Hour Temp Dew Point Humidity Winds Wind Gusts Pressure Precip Precip Rate Daily Precip Total
12:00 AM 42.1°F5.6°C 40.8°F4.9°C 95% 0.3 mph W0.5 kmh W 2.0 mph3.2 kmh 30.11 in1019.6 mb - 0.00 in0.0 mm 0.00 in0.0 mm
12:30 AM 42.4°F5.8°C 40.8°F4.9°C 94% 1.9 mph W3.1 kmh W 3.0 mph4.8 kmh 30.11 in1019.6 mb - 0.00 in0.0 mm 0.00 in0.0 mm
01:00 AM 42.4°F5.8°C 40.5°F4.7°C 93% 1.2 mph W1.9 kmh W 2.0 mph3.2 kmh 30.10 in1019.3 mb - 0.00 in0.0 mm 0.00 in0.0 mm
01:30 AM 42.2°F5.7°C 40.1°F4.5°C 92% 2.0 mph W3.2 kmh W 4.0 mph6.4 kmh 30.10 in1019.3 mb - 0.00 in0.0 mm 0.00 in0.0 mm
02:00 AM 42.4°F5.8°C 40.0°F4.4°C 91% 2.7 mph W4.3 kmh W 4.0 mph6.4 kmh 30.09 in1019.0 mb - 0.00 in0.0 mm 0.00 in0.0 mm
02:30 AM 42.7°F5.9°C 40.3°F4.6°C 91% 5.0 mph NNW8.0 kmh NNW 7.0 mph11.3 kmh 30.10 in1019.3 mb - 0.00 in0.0 mm 0.00 in0.0 mm
03:00 AM 43.3°F6.3°C 40.8°F4.9°C 91% 2.4 mph NNW3.9 kmh NNW 4.0 mph6.4 kmh 30.11 in1019.6 mb - 0.00 in0.0 mm 0.00 in0.0 mm
03:30 AM 43.1°F6.2°C 40.7°F4.8°C 91% 2.6 mph NNW4.2 kmh NNW 6.0 mph9.7 kmh 30.10 in1019.3 mb - 0.00 in0.0 mm 0.00 in0.0 mm
04:00 AM 42.7°F5.9°C 40.5°F4.7°C 92% 0.6 mph NNW1.0 kmh NNW 2.0 mph3.2 kmh 30.10 in1019.3 mb - 0.00 in0.0 mm 0.00 in0.0 mm
04:30 AM 42.3°F5.7°C 40.2°F4.6°C 92% 1.2 mph NNW1.9 kmh NNW 2.0 mph3.2 kmh 30.09 in1019.0 mb - 0.00 in0.0 mm 0.00 in0.0 mm
05:00 AM 41.6°F5.3°C 39.7°F4.3°C 93% Calm Calm -- 30.10 in1019.3 mb - 0.00 in0.0 mm 0.00 in0.0 mm
05:30 AM 41.9°F5.5°C 39.8°F4.3°C 92% 0.3 mph NNW0.5 kmh NNW 1.0 mph1.6 kmh 30.09 in1019.0 mb - 0.00 in0.0 mm 0.00 in0.0 mm
06:00 AM 42.4°F5.8°C 40.2°F4.6°C 92% 3.6 mph NNW5.8 kmh NNW 5.0 mph8.0 kmh 30.09 in1019.0 mb - 0.00 in0.0 mm 0.00 in0.0 mm
06:30 AM 42.6°F5.9°C 40.2°F4.6°C 91% 2.2 mph N3.5 kmh N 4.0 mph6.4 kmh 30.10 in1019.3 mb - 0.00 in0.0 mm 0.00 in0.0 mm
07:00 AM 42.0°F5.6°C 39.0°F3.9°C 89% 0.2 mph N0.3 kmh N -- 30.10 in1019.3 mb - 0.00 in0.0 mm 0.00 in0.0 mm
07:30 AM 40.5°F4.7°C 38.4°F3.6°C 92% 2.0 mph N3.2 kmh N 3.0 mph4.8 kmh 30.12 in1020.0 mb - 0.00 in0.0 mm 0.00 in0.0 mm
08:00 AM 41.7°F5.4°C 39.5°F4.2°C 92% Calm Calm -- 30.12 in1020.0 mb - 0.00 in0.0 mm 0.00 in0.0 mm
08:30 AM 41.3°F5.2°C 39.4°F4.1°C 93% 1.6 mph N2.6 kmh N 3.0 mph4.8 kmh 30.12 in1020.0 mb - 0.00 in0.0 mm 0.00 in0.0 mm
09:00 AM 42.8°F6.0°C 40.7°F4.8°C 92% 2.2 mph N3.5 kmh N 3.0 mph4.8 kmh 30.11 in1019.6 mb - 0.00 in0.0 mm 0.00 in0.0 mm
09:30 AM 45.9°F7.7°C 42.9°F6.1°C 89% 0.3 mph N0.5 kmh N 2.0 mph3.2 kmh 30.11 in1019.6 mb - 0.00 in0.0 mm 0.00 in0.0 mm
10:00 AM 46.8°F8.2°C 42.2°F5.7°C 84% 1.0 mph N1.6 kmh N 3.0 mph4.8 kmh 30.13 in1020.3 mb - 0.00 in0.0 mm 0.00 in0.0 mm
10:30 AM 46.9°F8.3°C 42.6°F5.9°C 85% 2.7 mph NNW4.3 kmh NNW 3.0 mph4.8 kmh 30.13 in1020.3 mb - 0.00 in0.0 mm 0.00 in0.0 mm
11:00 AM 47.8°F8.8°C 43.2°F6.2°C 84% 3.8 mph NNW6.1 kmh NNW 5.0 mph8.0 kmh 30.14 in1020.7 mb - 0.00 in0.0 mm 0.00 in0.0 mm
11:30 AM 47.6°F8.7°C 43.3°F6.3°C 85% 0.8 mph NNW1.3 kmh NNW 2.0 mph3.2 kmh 30.14 in1020.7 mb - 0.00 in0.0 mm 0.00 in0.0 mm
12:00 PM 46.9°F8.3°C 43.3°F6.3°C 87% 2.1 mph N3.4 kmh N 3.0 mph4.8 kmh 30.13 in1020.3 mb - 0.00 in0.0 mm 0.00 in0.0 mm
12:30 PM 46.0°F7.8°C 43.2°F6.2°C 90% 1.1 mph ENE1.8 kmh ENE 2.0 mph3.2 kmh 30.12 in1020.0 mb - 0.00 in0.0 mm 0.00 in0.0 mm
01:00 PM 46.3°F7.9°C 43.5°F6.4°C 90% 0.7 mph ENE1.1 kmh ENE 3.0 mph4.8 kmh 30.11 in1019.6 mb - 0.00 in0.0 mm 0.00 in0.0 mm
01:30 PM 47.4°F8.6°C 44.3°F6.8°C 89% Calm Calm -- 30.11 in1019.6 mb - 0.00 in0.0 mm 0.00 in0.0 mm
02:00 PM 48.9°F9.4°C 44.0°F6.7°C 83% 2.5 mph ENE4.0 kmh ENE 4.0 mph6.4 kmh 30.10 in1019.3 mb - 0.00 in0.0 mm 0.00 in0.0 mm
02:30 PM 48.6°F9.2°C 43.7°F6.5°C 83% 2.1 mph E3.4 kmh E 5.0 mph8.0 kmh 30.09 in1019.0 mb - 0.00 in0.0 mm 0.00 in0.0 mm
03:00 PM 48.3°F9.1°C 42.7°F5.9°C 81% 0.6 mph E1.0 kmh E 1.0 mph1.6 kmh 30.09 in1019.0 mb - 0.00 in0.0 mm 0.00 in0.0 mm
03:30 PM 48.4°F9.1°C 42.8°F6.0°C 81% Calm Calm -- 30.08 in1018.6 mb - 0.00 in0.0 mm 0.00 in0.0 mm
04:00 PM 47.4°F8.6°C 42.8°F6.0°C 84% 1.1 mph E1.8 kmh E 2.0 mph3.2 kmh 30.08 in1018.6 mb - 0.00 in0.0 mm 0.00 in0.0 mm
04:30 PM 47.0°F8.3°C 43.3°F6.3°C 87% Calm Calm -- 30.08 in1018.6 mb - 0.00 in0.0 mm 0.00 in0.0 mm
05:00 PM 45.8°F7.7°C 42.4°F5.8°C 88% 0.3 mph E0.5 kmh E -- 30.08 in1018.6 mb - 0.00 in0.0 mm 0.00 in0.0 mm
05:30 PM 44.8°F7.1°C 41.5°F5.3°C 88% Calm Calm -- 30.09 in1019.0 mb - 0.00 in0.0 mm 0.00 in0.0 mm
06:00 PM 43.4°F6.3°C 40.7°F4.8°C 90% 2.8 mph E4.5 kmh E 3.0 mph4.8 kmh 30.09 in1019.0 mb - 0.00 in0.0 mm 0.00 in0.0 mm
06:30 PM 43.2°F6.2°C 40.8°F4.9°C 91% 1.5 mph E2.4 kmh E 2.0 mph3.2 kmh 30.09 in1019.0 mb - 0.00 in0.0 mm 0.00 in0.0 mm
07:00 PM 42.7°F5.9°C 40.3°F4.6°C 91% 4.7 mph E7.6 kmh E 5.0 mph8.0 kmh 30.09 in1019.0 mb - 0.00 in0.0 mm 0.00 in0.0 mm
07:30 PM 43.5°F6.4°C 40.8°F4.9°C 90% 2.1 mph E3.4 kmh E 3.0 mph4.8 kmh 30.08 in1018.6 mb - 0.00 in0.0 mm 0.00 in0.0 mm
08:00 PM 43.8°F6.6°C 40.5°F4.7°C 88% 2.2 mph E3.5 kmh E 3.0 mph4.8 kmh 30.08 in1018.6 mb - 0.00 in0.0 mm 0.00 in0.0 mm
08:30 PM 44.0°F6.7°C 40.1°F4.5°C 86% 0.1 mph E0.2 kmh E 1.0 mph1.6 kmh 30.08 in1018.6 mb - 0.00 in0.0 mm 0.00 in0.0 mm
09:00 PM 44.0°F6.7°C 39.5°F4.2°C 84% 0.5 mph E0.8 kmh E 1.0 mph1.6 kmh 30.08 in1018.6 mb - 0.00 in0.0 mm 0.00 in0.0 mm
09:30 PM 43.8°F6.6°C 39.3°F4.1°C 84% 1.6 mph E2.6 kmh E 2.0 mph3.2 kmh 30.08 in1018.6 mb - 0.00 in0.0 mm 0.00 in0.0 mm
10:00 PM 43.4°F6.3°C 38.9°F3.8°C 84% 0.3 mph E0.5 kmh E -- 30.08 in1018.6 mb - 0.00 in0.0 mm 0.00 in0.0 mm
10:30 PM 43.2°F6.2°C 38.4°F3.6°C 83% Calm Calm -- 30.08 in1018.6 mb - 0.00 in0.0 mm 0.00 in0.0 mm
11:00 PM 42.9°F6.1°C 39.0°F3.9°C 86% 1.5 mph E2.4 kmh E 2.0 mph3.2 kmh 30.07 in1018.3 mb - 0.00 in0.0 mm 0.00 in0.0 mm
11:30 PM 42.0°F5.6°C 38.4°F3.6°C 87% Calm Calm -- 30.07 in1018.3 mb - 0.00 in0.0 mm 0.00 in0.0 mm